sensor_id;sensor_type;location;lat;lon;timestamp;P1;P2;P0
85148;PMS7003;75507;52.464;17.180;2024-02-26T00:00:27;201.67;163.33;88.33
85148;PMS7003;75507;52.464;17.180;2024-02-26T00:01:31;208.00;173.00;95.75
85148;PMS7003;75507;52.464;17.180;2024-02-26T00:02:32;232.50;185.00;96.00
85148;PMS7003;75507;52.464;17.180;2024-02-26T00:03:36;230.40;186.80;98.20
85148;PMS7003;75507;52.464;17.180;2024-02-26T00:04:37;249.00;192.33;102.00
85148;PMS7003;75507;52.464;17.180;2024-02-26T00:05:37;216.00;182.25;97.75
85148;PMS7003;75507;52.464;17.180;2024-02-26T00:06:38;199.40;169.80;94.60
85148;PMS7003;75507;52.464;17.180;2024-02-26T00:07:41;234.00;181.50;96.00
85148;PMS7003;75507;52.464;17.180;2024-02-26T00:08:41;232.00;184.00;93.00
85148;PMS7003;75507;52.464;17.180;2024-02-26T00:09:42;203.50;164.00;89.75
85148;PMS7003;75507;52.464;17.180;2024-02-26T00:10:42;196.67;166.00;90.67
85148;PMS7003;75507;52.464;17.180;2024-02-26T00:11:42;216.50;182.75;94.75
85148;PMS7003;75507;52.464;17.180;2024-02-26T00:12:43;205.75;163.25;88.00
85148;PMS7003;75507;52.464;17.180;2024-02-26T00:13:43;191.75;155.00;88.25
85148;PMS7003;75507;52.464;17.180;2024-02-26T00:14:43;199.50;164.00;88.25
85148;PMS7003;75507;52.464;17.180;2024-02-26T00:15:46;194.00;154.00;87.00
85148;PMS7003;75507;52.464;17.180;2024-02-26T00:16:46;146.25;133.25;77.50
85148;PMS7003;75507;52.464;17.180;2024-02-26T00:17:46;143.50;122.00;70.25
85148;PMS7003;75507;52.464;17.180;2024-02-26T00:18:46;148.25;125.50;71.25
85148;PMS7003;75507;52.464;17.180;2024-02-26T00:19:47;146.75;118.75;71.00
85148;PMS7003;75507;52.464;17.180;2024-02-26T00:20:47;139.25;121.50;69.00
85148;PMS7003;75507;52.464;17.180;2024-02-26T00:21:47;139.00;116.00;65.50
85148;PMS7003;75507;52.464;17.180;2024-02-26T00:22:48;127.00;106.00;64.33
85148;PMS7003;75507;52.464;17.180;2024-02-26T00:23:52;127.75;109.75;62.50
85148;PMS7003;75507;52.464;17.180;2024-02-26T00:24:53;131.20;113.00;64.00
85148;PMS7003;75507;52.464;17.180;2024-02-26T00:25:53;123.25;105.25;62.50
85148;PMS7003;75507;52.464;17.180;2024-02-26T00:26:53;123.33;107.67;62.33
85148;PMS7003;75507;52.464;17.180;2024-02-26T00:27:54;126.67;107.00;61.00
85148;PMS7003;75507;52.464;17.180;2024-02-26T00:28:54;113.25;96.50;57.75
85148;PMS7003;75507;52.464;17.180;2024-02-26T00:29:55;120.00;96.67;58.67
85148;PMS7003;75507;52.464;17.180;2024-02-26T00:30:55;104.75;93.75;59.00
85148;PMS7003;75507;52.464;17.180;2024-02-26T00:31:56;113.00;96.25;57.50
85148;PMS7003;75507;52.464;17.180;2024-02-26T00:32:56;107.75;95.00;56.25
85148;PMS7003;75507;52.464;17.180;2024-02-26T00:33:56;115.00;94.50;56.75
85148;PMS7003;75507;52.464;17.180;2024-02-26T00:34:57;109.00;92.75;54.75
85148;PMS7003;75507;52.464;17.180;2024-02-26T00:35:57;107.50;90.25;55.75
85148;PMS7003;75507;52.464;17.180;2024-02-26T00:36:57;117.50;96.00;56.00
85148;PMS7003;75507;52.464;17.180;2024-02-26T00:37:58;109.33;93.67;56.00
85148;PMS7003;75507;52.464;17.180;2024-02-26T00:38:58;97.50;87.00;54.75
85148;PMS7003;75507;52.464;17.180;2024-02-26T00:39:59;108.00;89.00;53.00
85148;PMS7003;75507;52.464;17.180;2024-02-26T00:40:59;106.67;91.33;56.67
85148;PMS7003;75507;52.464;17.180;2024-02-26T00:41:59;109.50;92.50;53.00
85148;PMS7003;75507;52.464;17.180;2024-02-26T00:42:59;105.75;91.75;54.00
85148;PMS7003;75507;52.464;17.180;2024-02-26T00:44:00;105.67;87.00;56.33
85148;PMS7003;75507;52.464;17.180;2024-02-26T00:45:00;104.00;87.67;54.33
85148;PMS7003;75507;52.464;17.180;2024-02-26T00:46:00;105.75;91.75;55.25
85148;PMS7003;75507;52.464;17.180;2024-02-26T00:47:02;104.60;92.20;57.00
85148;PMS7003;75507;52.464;17.180;2024-02-26T00:48:02;115.25;97.00;57.75
85148;PMS7003;75507;52.464;17.180;2024-02-26T00:49:06;106.25;91.25;55.25
85148;PMS7003;75507;52.464;17.180;2024-02-26T00:50:06;104.00;88.00;52.50
85148;PMS7003;75507;52.464;17.180;2024-02-26T00:51:08;106.40;88.80;52.00
85148;PMS7003;75507;52.464;17.180;2024-02-26T00:52:08;108.75;93.00;51.75
85148;PMS7003;75507;52.464;17.180;2024-02-26T00:53:09;99.33;85.00;52.00
85148;PMS7003;75507;52.464;17.180;2024-02-26T00:54:09;102.00;84.25;52.75
85148;PMS7003;75507;52.464;17.180;2024-02-26T00:55:09;92.50;82.25;50.50
85148;PMS7003;75507;52.464;17.180;2024-02-26T00:56:10;98.00;88.00;53.00
85148;PMS7003;75507;52.464;17.180;2024-02-26T00:57:10;95.50;84.00;51.50
85148;PMS7003;75507;52.464;17.180;2024-02-26T00:58:11;101.60;85.40;50.80
85148;PMS7003;75507;52.464;17.180;2024-02-26T00:59:11;99.50;85.00;52.25
85148;PMS7003;75507;52.464;17.180;2024-02-26T01:00:12;102.33;85.00;50.33
85148;PMS7003;75507;52.464;17.180;2024-02-26T01:01:13;99.50;83.00;51.00
85148;PMS7003;75507;52.464;17.180;2024-02-26T01:02:14;92.00;85.75;54.00
85148;PMS7003;75507;52.464;17.180;2024-02-26T01:03:14;101.25;87.75;52.75
85148;PMS7003;75507;52.464;17.180;2024-02-26T01:04:15;102.75;83.00;50.00
85148;PMS7003;75507;52.464;17.180;2024-02-26T01:05:15;94.50;80.25;50.25
85148;PMS7003;75507;52.464;17.180;2024-02-26T01:06:16;94.00;82.25;50.25
85148;PMS7003;75507;52.464;17.180;2024-02-26T01:07:17;98.75;87.75;51.00
85148;PMS7003;75507;52.464;17.180;2024-02-26T01:08:17;89.25;83.75;54.00
85148;PMS7003;75507;52.464;17.180;2024-02-26T01:09:17;100.25;86.50;53.00
85148;PMS7003;75507;52.464;17.180;2024-02-26T01:10:18;96.50;85.50;54.50
85148;PMS7003;75507;52.464;17.180;2024-02-26T01:11:18;101.75;87.25;55.75
85148;PMS7003;75507;52.464;17.180;2024-02-26T01:12:19;101.75;85.50;52.50
85148;PMS7003;75507;52.464;17.180;2024-02-26T01:13:19;99.75;89.00;55.00
85148;PMS7003;75507;52.464;17.180;2024-02-26T01:14:19;96.75;84.50;55.00
85148;PMS7003;75507;52.464;17.180;2024-02-26T01:15:20;100.50;92.00;56.50
85148;PMS7003;75507;52.464;17.180;2024-02-26T01:16:23;105.80;93.60;58.00
85148;PMS7003;75507;52.464;17.180;2024-02-26T01:17:24;104.00;88.67;54.33
85148;PMS7003;75507;52.464;17.180;2024-02-26T01:18:24;105.75;87.25;52.25
85148;PMS7003;75507;52.464;17.180;2024-02-26T01:19:24;97.75;85.00;52.00
85148;PMS7003;75507;52.464;17.180;2024-02-26T01:20:25;105.75;86.25;54.75
85148;PMS7003;75507;52.464;17.180;2024-02-26T01:21:25;102.50;89.50;55.00
85148;PMS7003;75507;52.464;17.180;2024-02-26T01:22:29;104.80;89.80;52.00
85148;PMS7003;75507;52.464;17.180;2024-02-26T01:23:29;100.25;86.75;51.50
85148;PMS7003;75507;52.464;17.180;2024-02-26T01:24:29;96.25;85.25;54.75
85148;PMS7003;75507;52.464;17.180;2024-02-26T01:25:30;102.50;89.25;53.00
85148;PMS7003;75507;52.464;17.180;2024-02-26T01:26:30;104.00;92.50;57.00
85148;PMS7003;75507;52.464;17.180;2024-02-26T01:27:30;102.75;88.50;54.75
85148;PMS7003;75507;52.464;17.180;2024-02-26T01:28:31;102.00;90.75;53.50
85148;PMS7003;75507;52.464;17.180;2024-02-26T01:29:31;96.33;85.00;52.67
85148;PMS7003;75507;52.464;17.180;2024-02-26T01:30:31;100.75;90.25;55.00
85148;PMS7003;75507;52.464;17.180;2024-02-26T01:31:32;97.67;85.00;52.00
85148;PMS7003;75507;52.464;17.180;2024-02-26T01:32:32;100.67;83.00;50.33
85148;PMS7003;75507;52.464;17.180;2024-02-26T01:33:32;101.33;87.00;53.67
85148;PMS7003;75507;52.464;17.180;2024-02-26T01:34:33;96.50;83.50;51.00
85148;PMS7003;75507;52.464;17.180;2024-02-26T01:35:33;97.67;85.33;54.00
85148;PMS7003;75507;52.464;17.180;2024-02-26T01:36:34;94.50;84.25;52.25
85148;PMS7003;75507;52.464;17.180;2024-02-26T01:37:34;93.25;83.00;53.00
85148;PMS7003;75507;52.464;17.180;2024-02-26T01:38:34;97.33;87.33;51.00
85148;PMS7003;75507;52.464;17.180;2024-02-26T01:39:35;106.50;90.50;54.00
85148;PMS7003;75507;52.464;17.180;2024-02-26T01:40:35;93.33;79.00;49.67
85148;PMS7003;75507;52.464;17.180;2024-02-26T01:41:36;103.50;85.75;54.50
85148;PMS7003;75507;52.464;17.180;2024-02-26T01:42:39;88.67;80.67;48.67
85148;PMS7003;75507;52.464;17.180;2024-02-26T01:43:40;92.00;81.50;50.50
85148;PMS7003;75507;52.464;17.180;2024-02-26T01:44:41;98.75;81.00;49.00
85148;PMS7003;75507;52.464;17.180;2024-02-26T01:45:42;94.00;81.00;51.50
85148;PMS7003;75507;52.464;17.180;2024-02-26T01:46:42;95.00;82.50;51.00
85148;PMS7003;75507;52.464;17.180;2024-02-26T01:47:43;95.50;86.00;53.50
85148;PMS7003;75507;52.464;17.180;2024-02-26T01:48:43;88.00;80.00;50.25
85148;PMS7003;75507;52.464;17.180;2024-02-26T01:49:47;92.50;83.25;51.50
85148;PMS7003;75507;52.464;17.180;2024-02-26T01:50:47;97.67;83.67;50.67
85148;PMS7003;75507;52.464;17.180;2024-02-26T01:51:47;102.33;83.00;51.00
85148;PMS7003;75507;52.464;17.180;2024-02-26T01:52:49;86.75;78.00;51.50
85148;PMS7003;75507;52.464;17.180;2024-02-26T01:53:50;96.20;84.00;52.00
85148;PMS7003;75507;52.464;17.180;2024-02-26T01:54:51;90.50;81.50;49.25
85148;PMS7003;75507;52.464;17.180;2024-02-26T01:55:51;102.50;83.75;50.75
85148;PMS7003;75507;52.464;17.180;2024-02-26T01:56:52;89.33;83.33;49.00
85148;PMS7003;75507;52.464;17.180;2024-02-26T01:57:52;99.00;86.67;53.00
85148;PMS7003;75507;52.464;17.180;2024-02-26T01:58:54;91.25;80.25;49.00
85148;PMS7003;75507;52.464;17.180;2024-02-26T01:59:54;100.75;84.25;51.00
85148;PMS7003;75507;52.464;17.180;2024-02-26T02:00:55;93.00;83.00;49.50
85148;PMS7003;75507;52.464;17.180;2024-02-26T02:01:57;89.67;79.33;49.00
85148;PMS7003;75507;52.464;17.180;2024-02-26T02:02:58;96.60;85.40;52.00
85148;PMS7003;75507;52.464;17.180;2024-02-26T02:03:59;95.75;88.00;52.75
85148;PMS7003;75507;52.464;17.180;2024-02-26T02:05:00;98.75;87.00;52.75
85148;PMS7003;75507;52.464;17.180;2024-02-26T02:06:01;93.50;81.50;49.25
85148;PMS7003;75507;52.464;17.180;2024-02-26T02:07:02;92.25;83.50;51.50
85148;PMS7003;75507;52.464;17.180;2024-02-26T02:08:03;93.75;82.00;51.00
85148;PMS7003;75507;52.464;17.180;2024-02-26T02:09:05;93.00;83.25;51.50
85148;PMS7003;75507;52.464;17.180;2024-02-26T02:10:07;104.80;90.20;53.00
85148;PMS7003;75507;52.464;17.180;2024-02-26T02:11:08;91.00;80.25;52.75
85148;PMS7003;75507;52.464;17.180;2024-02-26T02:12:11;99.00;82.50;51.50
85148;PMS7003;75507;52.464;17.180;2024-02-26T02:13:11;95.67;83.00;52.33
85148;PMS7003;75507;52.464;17.180;2024-02-26T02:14:12;90.50;82.25;49.50
85148;PMS7003;75507;52.464;17.180;2024-02-26T02:15:12;98.75;87.75;52.75
85148;PMS7003;75507;52.464;17.180;2024-02-26T02:16:12;104.25;89.25;52.00
85148;PMS7003;75507;52.464;17.180;2024-02-26T02:17:13;99.25;82.75;50.75
85148;PMS7003;75507;52.464;17.180;2024-02-26T02:18:13;95.00;84.67;51.33
85148;PMS7003;75507;52.464;17.180;2024-02-26T02:19:14;100.50;90.75;50.75
85148;PMS7003;75507;52.464;17.180;2024-02-26T02:20:15;95.00;85.50;50.25
85148;PMS7003;75507;52.464;17.180;2024-02-26T02:21:16;96.75;83.75;51.00
85148;PMS7003;75507;52.464;17.180;2024-02-26T02:22:17;97.50;87.00;52.25
85148;PMS7003;75507;52.464;17.180;2024-02-26T02:23:18;95.00;84.67;50.67
85148;PMS7003;75507;52.464;17.180;2024-02-26T02:24:18;90.75;78.25;49.00
85148;PMS7003;75507;52.464;17.180;2024-02-26T02:25:18;103.67;82.00;49.67
85148;PMS7003;75507;52.464;17.180;2024-02-26T02:26:19;88.00;79.00;48.33
85148;PMS7003;75507;52.464;17.180;2024-02-26T02:27:20;91.20;86.80;50.60
85148;PMS7003;75507;52.464;17.180;2024-02-26T02:28:21;94.00;83.00;50.50
85148;PMS7003;75507;52.464;17.180;2024-02-26T02:29:22;98.00;83.80;48.80
85148;PMS7003;75507;52.464;17.180;2024-02-26T02:30:23;101.60;80.00;50.00
85148;PMS7003;75507;52.464;17.180;2024-02-26T02:31:25;87.60;78.60;47.40
85148;PMS7003;75507;52.464;17.180;2024-02-26T02:32:26;94.50;80.75;51.75
85148;PMS7003;75507;52.464;17.180;2024-02-26T02:33:26;89.00;80.25;49.75
85148;PMS7003;75507;52.464;17.180;2024-02-26T02:34:26;94.33;80.00;50.33
85148;PMS7003;75507;52.464;17.180;2024-02-26T02:35:27;95.50;85.00;50.75
85148;PMS7003;75507;52.464;17.180;2024-02-26T02:36:27;99.00;87.33;51.33
85148;PMS7003;75507;52.464;17.180;2024-02-26T02:37:28;91.25;81.50;49.75
85148;PMS7003;75507;52.464;17.180;2024-02-26T02:38:28;92.67;85.00;50.67
85148;PMS7003;75507;52.464;17.180;2024-02-26T02:39:30;102.40;84.80;49.80
85148;PMS7003;75507;52.464;17.180;2024-02-26T02:40:30;91.00;80.00;50.25
85148;PMS7003;75507;52.464;17.180;2024-02-26T02:41:30;94.75;82.00;50.00
85148;PMS7003;75507;52.464;17.180;2024-02-26T02:42:31;99.25;88.00;51.25
85148;PMS7003;75507;52.464;17.180;2024-02-26T02:43:31;99.50;82.75;49.75
85148;PMS7003;75507;52.464;17.180;2024-02-26T02:44:31;103.50;87.00;51.00
85148;PMS7003;75507;52.464;17.180;2024-02-26T02:45:32;98.00;87.00;52.33
85148;PMS7003;75507;52.464;17.180;2024-02-26T02:46:32;94.00;79.75;50.75
85148;PMS7003;75507;52.464;17.180;2024-02-26T02:47:35;98.40;83.20;51.60
85148;PMS7003;75507;52.464;17.180;2024-02-26T02:48:37;93.00;80.00;48.75
85148;PMS7003;75507;52.464;17.180;2024-02-26T02:49:37;97.00;82.00;50.75
85148;PMS7003;75507;52.464;17.180;2024-02-26T02:50:38;92.00;80.50;47.25
85148;PMS7003;75507;52.464;17.180;2024-02-26T02:51:39;90.75;79.50;48.00
85148;PMS7003;75507;52.464;17.180;2024-02-26T02:52:39;94.00;80.50;48.25
85148;PMS7003;75507;52.464;17.180;2024-02-26T02:53:39;94.75;82.75;47.00
85148;PMS7003;75507;52.464;17.180;2024-02-26T02:54:40;88.67;77.67;47.00
85148;PMS7003;75507;52.464;17.180;2024-02-26T02:55:41;91.80;79.80;47.20
85148;PMS7003;75507;52.464;17.180;2024-02-26T02:56:42;85.00;74.50;44.25
85148;PMS7003;75507;52.464;17.180;2024-02-26T02:57:42;78.50;70.75;46.75
85148;PMS7003;75507;52.464;17.180;2024-02-26T02:58:42;89.00;77.25;44.25
85148;PMS7003;75507;52.464;17.180;2024-02-26T02:59:43;86.25;76.75;45.25
85148;PMS7003;75507;52.464;17.180;2024-02-26T03:00:43;82.00;73.50;45.00
85148;PMS7003;75507;52.464;17.180;2024-02-26T03:01:44;79.75;70.75;44.25
85148;PMS7003;75507;52.464;17.180;2024-02-26T03:02:44;79.25;69.75;43.00
85148;PMS7003;75507;52.464;17.180;2024-02-26T03:03:45;79.50;67.50;43.00
85148;PMS7003;75507;52.464;17.180;2024-02-26T03:04:45;79.25;71.75;46.00
85148;PMS7003;75507;52.464;17.180;2024-02-26T03:05:45;76.00;65.50;41.00
85148;PMS7003;75507;52.464;17.180;2024-02-26T03:06:46;77.00;69.00;43.00
85148;PMS7003;75507;52.464;17.180;2024-02-26T03:07:46;77.00;66.25;41.00
85148;PMS7003;75507;52.464;17.180;2024-02-26T03:08:46;76.67;63.00;39.00
85148;PMS7003;75507;52.464;17.180;2024-02-26T03:09:47;75.75;66.50;43.50
85148;PMS7003;75507;52.464;17.180;2024-02-26T03:10:47;78.67;67.00;44.00
85148;PMS7003;75507;52.464;17.180;2024-02-26T03:11:47;73.00;60.50;39.75
85148;PMS7003;75507;52.464;17.180;2024-02-26T03:12:48;76.00;63.00;41.00
85148;PMS7003;75507;52.464;17.180;2024-02-26T03:13:48;74.75;62.00;40.75
85148;PMS7003;75507;52.464;17.180;2024-02-26T03:14:48;75.33;63.67;40.33
85148;PMS7003;75507;52.464;17.180;2024-02-26T03:15:49;78.00;65.00;41.00
85148;PMS7003;75507;52.464;17.180;2024-02-26T03:16:49;75.00;62.67;41.33
85148;PMS7003;75507;52.464;17.180;2024-02-26T03:17:49;76.25;62.75;40.50
85148;PMS7003;75507;52.464;17.180;2024-02-26T03:18:50;71.33;59.00;39.33
85148;PMS7003;75507;52.464;17.180;2024-02-26T03:19:50;73.00;62.75;39.50
85148;PMS7003;75507;52.464;17.180;2024-02-26T03:20:53;72.75;61.25;38.00
85148;PMS7003;75507;52.464;17.180;2024-02-26T03:21:53;72.75;59.00;39.25
85148;PMS7003;75507;52.464;17.180;2024-02-26T03:22:53;71.25;57.25;38.75
85148;PMS7003;75507;52.464;17.180;2024-02-26T03:23:54;72.00;58.25;40.25
85148;PMS7003;75507;52.464;17.180;2024-02-26T03:24:55;72.25;59.25;38.00
85148;PMS7003;75507;52.464;17.180;2024-02-26T03:25:55;71.00;59.00;37.67
85148;PMS7003;75507;52.464;17.180;2024-02-26T03:26:56;72.50;60.25;38.50
85148;PMS7003;75507;52.464;17.180;2024-02-26T03:27:56;72.75;59.00;38.50
85148;PMS7003;75507;52.464;17.180;2024-02-26T03:28:56;75.50;61.00;38.25
85148;PMS7003;75507;52.464;17.180;2024-02-26T03:29:57;72.00;61.25;39.00
85148;PMS7003;75507;52.464;17.180;2024-02-26T03:30:57;71.75;61.50;38.50
85148;PMS7003;75507;52.464;17.180;2024-02-26T03:31:57;73.33;61.67;39.33
85148;PMS7003;75507;52.464;17.180;2024-02-26T03:32:58;76.67;63.00;38.33
85148;PMS7003;75507;52.464;17.180;2024-02-26T03:33:58;72.33;59.67;38.00
85148;PMS7003;75507;52.464;17.180;2024-02-26T03:34:58;70.75;58.75;38.50
85148;PMS7003;75507;52.464;17.180;2024-02-26T03:35:59;72.25;54.75;36.25
85148;PMS7003;75507;52.464;17.180;2024-02-26T03:37:00;73.25;60.75;38.25
85148;PMS7003;75507;52.464;17.180;2024-02-26T03:38:01;73.00;60.00;37.25
85148;PMS7003;75507;52.464;17.180;2024-02-26T03:39:02;73.20;60.80;37.00
85148;PMS7003;75507;52.464;17.180;2024-02-26T03:40:07;74.00;59.20;37.00
85148;PMS7003;75507;52.464;17.180;2024-02-26T03:41:08;72.25;58.00;38.00
85148;PMS7003;75507;52.464;17.180;2024-02-26T03:42:08;75.00;58.75;38.00
85148;PMS7003;75507;52.464;17.180;2024-02-26T03:43:08;73.00;61.00;39.00
85148;PMS7003;75507;52.464;17.180;2024-02-26T03:44:09;73.00;60.67;39.67
85148;PMS7003;75507;52.464;17.180;2024-02-26T03:45:09;70.00;56.50;39.00
85148;PMS7003;75507;52.464;17.180;2024-02-26T03:46:10;74.00;60.00;35.00
85148;PMS7003;75507;52.464;17.180;2024-02-26T03:47:11;72.50;57.25;35.50
85148;PMS7003;75507;52.464;17.180;2024-02-26T03:48:12;70.50;57.25;38.50
85148;PMS7003;75507;52.464;17.180;2024-02-26T03:49:12;72.75;60.75;37.00
85148;PMS7003;75507;52.464;17.180;2024-02-26T03:50:13;73.50;61.75;38.75
85148;PMS7003;75507;52.464;17.180;2024-02-26T03:51:13;73.75;58.00;38.25
85148;PMS7003;75507;52.464;17.180;2024-02-26T03:52:14;76.00;63.75;38.25
85148;PMS7003;75507;52.464;17.180;2024-02-26T03:53:14;72.33;56.33;38.33
85148;PMS7003;75507;52.464;17.180;2024-02-26T03:54:15;75.00;61.00;40.75
85148;PMS7003;75507;52.464;17.180;2024-02-26T03:55:15;76.67;61.33;38.67
85148;PMS7003;75507;52.464;17.180;2024-02-26T03:56:18;73.00;62.75;38.75
85148;PMS7003;75507;52.464;17.180;2024-02-26T03:57:18;72.25;59.25;37.75
85148;PMS7003;75507;52.464;17.180;2024-02-26T03:58:18;75.00;60.50;40.25
85148;PMS7003;75507;52.464;17.180;2024-02-26T03:59:19;76.00;66.33;38.00
85148;PMS7003;75507;52.464;17.180;2024-02-26T04:00:20;74.50;62.50;39.00
85148;PMS7003;75507;52.464;17.180;2024-02-26T04:01:20;74.00;64.00;39.50
85148;PMS7003;75507;52.464;17.180;2024-02-26T04:02:20;75.75;62.50;39.00
85148;PMS7003;75507;52.464;17.180;2024-02-26T04:03:22;68.40;56.40;38.00
85148;PMS7003;75507;52.464;17.180;2024-02-26T04:04:23;74.67;60.33;39.00
85148;PMS7003;75507;52.464;17.180;2024-02-26T04:05:23;75.33;63.67;39.00
85148;PMS7003;75507;52.464;17.180;2024-02-26T04:06:23;77.50;65.50;39.25
85148;PMS7003;75507;52.464;17.180;2024-02-26T04:07:24;72.33;61.33;38.67
85148;PMS7003;75507;52.464;17.180;2024-02-26T04:08:24;74.33;62.00;37.00
85148;PMS7003;75507;52.464;17.180;2024-02-26T04:09:24;71.50;58.25;37.75
85148;PMS7003;75507;52.464;17.180;2024-02-26T04:10:25;72.00;60.25;37.00
85148;PMS7003;75507;52.464;17.180;2024-02-26T04:11:25;70.67;60.67;36.33
85148;PMS7003;75507;52.464;17.180;2024-02-26T04:12:25;74.00;62.00;38.67
85148;PMS7003;75507;52.464;17.180;2024-02-26T04:13:25;72.67;60.67;38.33
85148;PMS7003;75507;52.464;17.180;2024-02-26T04:14:26;75.50;63.00;40.75
85148;PMS7003;75507;52.464;17.180;2024-02-26T04:15:26;72.25;59.75;38.25
85148;PMS7003;75507;52.464;17.180;2024-02-26T04:16:26;73.00;61.67;37.67
85148;PMS7003;75507;52.464;17.180;2024-02-26T04:17:27;74.00;61.67;40.67
85148;PMS7003;75507;52.464;17.180;2024-02-26T04:18:27;76.50;61.25;41.25
85148;PMS7003;75507;52.464;17.180;2024-02-26T04:19:28;75.80;62.20;38.40
85148;PMS7003;75507;52.464;17.180;2024-02-26T04:20:28;72.25;60.75;38.25
85148;PMS7003;75507;52.464;17.180;2024-02-26T04:21:28;68.00;57.00;39.00
85148;PMS7003;75507;52.464;17.180;2024-02-26T04:22:29;73.50;60.50;38.75
85148;PMS7003;75507;52.464;17.180;2024-02-26T04:23:29;75.25;64.50;40.50
85148;PMS7003;75507;52.464;17.180;2024-02-26T04:24:29;74.50;61.25;38.75
85148;PMS7003;75507;52.464;17.180;2024-02-26T04:25:30;76.50;59.25;39.00
85148;PMS7003;75507;52.464;17.180;2024-02-26T04:26:30;71.50;60.00;38.00
85148;PMS7003;75507;52.464;17.180;2024-02-26T04:27:31;73.75;61.75;39.50
85148;PMS7003;75507;52.464;17.180;2024-02-26T04:28:31;72.75;58.25;37.50
85148;PMS7003;75507;52.464;17.180;2024-02-26T04:29:31;75.00;61.75;39.00
85148;PMS7003;75507;52.464;17.180;2024-02-26T04:30:31;73.75;61.00;39.25
85148;PMS7003;75507;52.464;17.180;2024-02-26T04:31:32;76.75;60.75;38.50
85148;PMS7003;75507;52.464;17.180;2024-02-26T04:32:33;74.25;61.00;39.50
85148;PMS7003;75507;52.464;17.180;2024-02-26T04:33:34;73.75;59.75;40.75
85148;PMS7003;75507;52.464;17.180;2024-02-26T04:34:35;74.50;59.25;39.00
85148;PMS7003;75507;52.464;17.180;2024-02-26T04:35:35;69.75;56.25;37.75
85148;PMS7003;75507;52.464;17.180;2024-02-26T04:36:35;76.00;61.50;39.25
85148;PMS7003;75507;52.464;17.180;2024-02-26T04:37:35;75.00;61.00;40.00
85148;PMS7003;75507;52.464;17.180;2024-02-26T04:38:36;74.00;61.67;40.67
85148;PMS7003;75507;52.464;17.180;2024-02-26T04:39:36;74.33;60.67;39.00
85148;PMS7003;75507;52.464;17.180;2024-02-26T04:40:36;73.67;60.33;39.00
85148;PMS7003;75507;52.464;17.180;2024-02-26T04:41:37;72.50;60.50;38.50
85148;PMS7003;75507;52.464;17.180;2024-02-26T04:42:37;74.25;59.50;40.25
85148;PMS7003;75507;52.464;17.180;2024-02-26T04:43:37;78.00;64.00;40.33
85148;PMS7003;75507;52.464;17.180;2024-02-26T04:44:47;76.75;66.25;41.50
85148;PMS7003;75507;52.464;17.180;2024-02-26T04:45:47;74.00;61.75;39.25
85148;PMS7003;75507;52.464;17.180;2024-02-26T04:46:48;77.75;63.50;39.50
85148;PMS7003;75507;52.464;17.180;2024-02-26T04:47:48;71.00;59.33;38.33
85148;PMS7003;75507;52.464;17.180;2024-02-26T04:48:48;76.50;62.75;38.75
85148;PMS7003;75507;52.464;17.180;2024-02-26T04:49:49;72.75;60.50;39.50
85148;PMS7003;75507;52.464;17.180;2024-02-26T04:50:50;74.25;62.75;40.25
85148;PMS7003;75507;52.464;17.180;2024-02-26T04:51:50;76.75;63.25;39.50
85148;PMS7003;75507;52.464;17.180;2024-02-26T04:52:51;75.75;63.00;39.75
85148;PMS7003;75507;52.464;17.180;2024-02-26T04:53:51;76.00;66.00;39.00
85148;PMS7003;75507;52.464;17.180;2024-02-26T04:54:53;78.75;64.00;40.00
85148;PMS7003;75507;52.464;17.180;2024-02-26T04:55:54;76.40;63.00;41.00
85148;PMS7003;75507;52.464;17.180;2024-02-26T04:56:55;75.50;63.75;41.50
85148;PMS7003;75507;52.464;17.180;2024-02-26T04:57:55;75.00;62.00;40.75
85148;PMS7003;75507;52.464;17.180;2024-02-26T04:58:55;75.50;63.75;40.75
85148;PMS7003;75507;52.464;17.180;2024-02-26T04:59:55;75.50;62.00;40.00
85148;PMS7003;75507;52.464;17.180;2024-02-26T05:00:56;76.75;66.25;44.75
85148;PMS7003;75507;52.464;17.180;2024-02-26T05:01:56;77.00;61.75;40.50
85148;PMS7003;75507;52.464;17.180;2024-02-26T05:02:56;75.25;64.25;41.00
85148;PMS7003;75507;52.464;17.180;2024-02-26T05:03:57;75.50;64.50;42.50
85148;PMS7003;75507;52.464;17.180;2024-02-26T05:04:57;75.75;66.75;42.00
85148;PMS7003;75507;52.464;17.180;2024-02-26T05:05:57;75.00;62.50;41.00
85148;PMS7003;75507;52.464;17.180;2024-02-26T05:06:58;78.00;68.67;43.33
85148;PMS7003;75507;52.464;17.180;2024-02-26T05:07:58;75.75;65.00;43.25
85148;PMS7003;75507;52.464;17.180;2024-02-26T05:08:58;78.25;63.50;42.00
85148;PMS7003;75507;52.464;17.180;2024-02-26T05:09:59;78.75;70.75;47.00
85148;PMS7003;75507;52.464;17.180;2024-02-26T05:10:59;83.75;73.75;44.50
85148;PMS7003;75507;52.464;17.180;2024-02-26T05:12:00;79.40;70.60;47.20
85148;PMS7003;75507;52.464;17.180;2024-02-26T05:13:01;86.40;73.20;44.80
85148;PMS7003;75507;52.464;17.180;2024-02-26T05:14:02;79.00;70.00;43.75
85148;PMS7003;75507;52.464;17.180;2024-02-26T05:15:03;78.00;66.00;42.50
85148;PMS7003;75507;52.464;17.180;2024-02-26T05:16:03;78.33;69.00;45.67
85148;PMS7003;75507;52.464;17.180;2024-02-26T05:17:04;79.80;66.80;43.80
85148;PMS7003;75507;52.464;17.180;2024-02-26T05:18:06;77.33;65.67;42.00
85148;PMS7003;75507;52.464;17.180;2024-02-26T05:19:07;82.40;70.60;45.00
85148;PMS7003;75507;52.464;17.180;2024-02-26T05:20:08;79.75;67.75;42.00
85148;PMS7003;75507;52.464;17.180;2024-02-26T05:21:08;78.00;66.67;43.33
85148;PMS7003;75507;52.464;17.180;2024-02-26T05:22:09;77.00;68.25;45.00
85148;PMS7003;75507;52.464;17.180;2024-02-26T05:23:09;78.75;71.25;44.25
85148;PMS7003;75507;52.464;17.180;2024-02-26T05:24:09;77.50;66.75;41.00
85148;PMS7003;75507;52.464;17.180;2024-02-26T05:25:10;76.75;66.00;42.00
85148;PMS7003;75507;52.464;17.180;2024-02-26T05:26:10;77.25;70.50;42.75
85148;PMS7003;75507;52.464;17.180;2024-02-26T05:27:10;75.75;65.00;41.75
85148;PMS7003;75507;52.464;17.180;2024-02-26T05:28:12;76.20;64.80;40.20
85148;PMS7003;75507;52.464;17.180;2024-02-26T05:29:12;77.33;66.67;43.00
85148;PMS7003;75507;52.464;17.180;2024-02-26T05:30:12;75.00;64.75;41.00
85148;PMS7003;75507;52.464;17.180;2024-02-26T05:31:13;75.25;62.25;42.25
85148;PMS7003;75507;52.464;17.180;2024-02-26T05:32:14;76.75;67.00;42.25
85148;PMS7003;75507;52.464;17.180;2024-02-26T05:33:14;78.25;66.25;42.75